NCAR-RAP Real-Time Weather Data

Output produced by METARs form (30 April 2017  15:04 UTC)
found at http://weather.rap.ucar.edu/surface/
 
Conditions at: KVDF observed 30 April 2017  14:55 UTC
Temperature: 30.0°C (86°F)
Dewpoint: 20.0°C (68°F) [RH = 55%]
Pressure (altimeter): 30.10 inches Hg (1019.4 mb)
Winds: from the SE (130 degrees) at 15 MPH (13 knots; 6.8 m/s)
gusting to 21 MPH (18 knots; 9.4 m/s)
Visibility: 10 or more miles (16+ km)
Ceiling: 2500 feet AGL
Clouds: broken clouds at 2500 feet AGL
broken clouds at 3300 feet AGL
Present Weather: automated observation with no human augmentation;
there may or may not be significant weather present at this time
KVDF 301455Z AUTO 13013G18KT 10SM BKN025 BKN033 30/20 A3010 RMK AO2

Conditions at: KVDF observed 30 April 2017  14:35 UTC
Temperature: 28.0°C (82°F)
Dewpoint: 21.0°C (70°F) [RH = 66%]
Pressure (altimeter): 30.10 inches Hg (1019.4 mb)
Winds: from the SE (130 degrees) at 14 MPH (12 knots; 6.2 m/s)
gusting to 18 MPH (16 knots; 8.3 m/s)
Visibility: 10 or more miles (16+ km)
Ceiling: at least 12,000 feet AGL
Clouds: scattered clouds at 2100 feet AGL
Present Weather: automated observation with no human augmentation;
there may or may not be significant weather present at this time
KVDF 301435Z AUTO 13012G16KT 10SM SCT021 28/21 A3010 RMK AO2

Conditions at: KVDF observed 30 April 2017  14:15 UTC
Temperature: 27.0°C (81°F)
Dewpoint: 21.0°C (70°F) [RH = 70%]
Pressure (altimeter): 30.10 inches Hg (1019.4 mb)
Winds: from the SSE (150 degrees) at 10 MPH (9 knots; 4.7 m/s)
gusting to 22 MPH (19 knots; 9.9 m/s)
Visibility: 10 or more miles (16+ km)
Ceiling: at least 12,000 feet AGL
Clouds: scattered clouds at 1900 feet AGL
Present Weather: automated observation with no human augmentation;
there may or may not be significant weather present at this time
KVDF 301415Z AUTO 15009G19KT 10SM SCT019 27/21 A3010 RMK AO2

Conditions at: KVDF observed 30 April 2017  13:55 UTC
Temperature: 26.0°C (79°F)
Dewpoint: 21.0°C (70°F) [RH = 74%]
Pressure (altimeter): 30.10 inches Hg (1019.4 mb)
Winds: from the SE (140 degrees) at 8 MPH (7 knots; 3.6 m/s)
Visibility: 10 or more miles (16+ km)
Ceiling: at least 12,000 feet AGL
Clouds: scattered clouds at 1900 feet AGL
Present Weather: automated observation with no human augmentation;
there may or may not be significant weather present at this time
KVDF 301355Z AUTO 14007KT 10SM SCT019 26/21 A3010 RMK AO2

Conditions at: KVDF observed 30 April 2017  13:35 UTC
Temperature: 26.0°C (79°F)
Dewpoint: 21.0°C (70°F) [RH = 74%]
Pressure (altimeter): 30.11 inches Hg (1019.7 mb)
Winds: from the SSE (150 degrees) at 12 MPH (10 knots; 5.2 m/s)
Visibility: 10 or more miles (16+ km)
Ceiling: at least 12,000 feet AGL
Clouds: sky clear below 12,000 feet AGL
Present Weather: automated observation with no human augmentation;
there may or may not be significant weather present at this time
KVDF 301335Z AUTO 15010KT 10SM CLR 26/21 A3011 RMK AO2

Conditions at: KVDF observed 30 April 2017  13:15 UTC
Temperature: 26.0°C (79°F)
Dewpoint: 21.0°C (70°F) [RH = 74%]
Pressure (altimeter): 30.11 inches Hg (1019.7 mb)
Winds: from the SSE (150 degrees) at 9 MPH (8 knots; 4.2 m/s)
Visibility: 10 or more miles (16+ km)
Ceiling: at least 12,000 feet AGL
Clouds: sky clear below 12,000 feet AGL
Present Weather: automated observation with no human augmentation;
there may or may not be significant weather present at this time
KVDF 301315Z AUTO 15008KT 10SM CLR 26/21 A3011 RMK AO2

Conditions at: KVDF observed 30 April 2017  12:55 UTC
Temperature: 25.0°C (77°F)
Dewpoint: 21.0°C (70°F) [RH = 79%]
Pressure (altimeter): 30.12 inches Hg (1020.1 mb)
Winds: from the SSE (150 degrees) at 8 MPH (7 knots; 3.6 m/s)
Visibility: 10 or more miles (16+ km)
Ceiling: at least 12,000 feet AGL
Clouds: scattered clouds at 7000 feet AGL
Present Weather: automated observation with no human augmentation;
there may or may not be significant weather present at this time
KVDF 301255Z AUTO 15007KT 10SM SCT070 25/21 A3012 RMK AO2

Conditions at: KVDF observed 30 April 2017  12:35 UTC
Temperature: 25.0°C (77°F)
Dewpoint: 21.0°C (70°F) [RH = 79%]
Pressure (altimeter): 30.12 inches Hg (1020.1 mb)
Winds: from the SE (130 degrees) at 6 MPH (5 knots; 2.6 m/s)
Visibility: 10 or more miles (16+ km)
Ceiling: 7000 feet AGL
Clouds: broken clouds at 7000 feet AGL
Present Weather: automated observation with no human augmentation;
there may or may not be significant weather present at this time
KVDF 301235Z AUTO 13005KT 10SM BKN070 25/21 A3012 RMK AO2

Conditions at: KVDF observed 30 April 2017  12:15 UTC
Temperature: 25.0°C (77°F)
Dewpoint: 21.0°C (70°F) [RH = 79%]
Pressure (altimeter): 30.12 inches Hg (1020.1 mb)
Winds: from the ESE (120 degrees) at 6 MPH (5 knots; 2.6 m/s)
Visibility: 10 or more miles (16+ km)
Ceiling: at least 12,000 feet AGL
Clouds: scattered clouds at 7000 feet AGL
Present Weather: automated observation with no human augmentation;
there may or may not be significant weather present at this time
KVDF 301215Z AUTO 12005KT 10SM SCT070 25/21 A3012 RMK AO2

Conditions at: KVDF observed 30 April 2017  11:55 UTC
Temperature: 24.0°C (75°F)
Dewpoint: 21.0°C (70°F) [RH = 83%]
Pressure (altimeter): 30.12 inches Hg (1020.1 mb)
Winds: from the ESE (110 degrees) at 6 MPH (5 knots; 2.6 m/s)
Visibility: 10 or more miles (16+ km)
Ceiling: at least 12,000 feet AGL
Clouds: scattered clouds at 7000 feet AGL
Present Weather: automated observation with no human augmentation;
there may or may not be significant weather present at this time
KVDF 301155Z AUTO 11005KT 10SM SCT070 24/21 A3012 RMK AO2

Conditions at: KVDF observed 30 April 2017  11:35 UTC
Temperature: 23.0°C (73°F)
Dewpoint: 21.0°C (70°F) [RH = 89%]
Pressure (altimeter): 30.12 inches Hg (1020.1 mb)
Winds: from the SE (130 degrees) at 3 MPH (3 knots; 1.6 m/s)
Visibility: 10 or more miles (16+ km)
Ceiling: 7000 feet AGL
Clouds: broken clouds at 7000 feet AGL
Present Weather: automated observation with no human augmentation;
there may or may not be significant weather present at this time
KVDF 301135Z AUTO 13003KT 10SM BKN070 23/21 A3012 RMK AO2

Conditions at: KVDF observed 30 April 2017  11:15 UTC
Temperature: 23.0°C (73°F)
Dewpoint: 21.0°C (70°F) [RH = 89%]
Pressure (altimeter): 30.12 inches Hg (1020.1 mb)
Winds: calm
Visibility: 10 or more miles (16+ km)
Ceiling: at least 12,000 feet AGL
Clouds: sky clear below 12,000 feet AGL
Present Weather: automated observation with no human augmentation;
there may or may not be significant weather present at this time
KVDF 301115Z AUTO 00000KT 10SM CLR 23/21 A3012 RMK AO2

Conditions at: KVDF observed 30 April 2017  10:55 UTC
Temperature: 23.0°C (73°F)
Dewpoint: 21.0°C (70°F) [RH = 89%]
Pressure (altimeter): 30.12 inches Hg (1020.1 mb)
Winds: calm
Visibility: 10 or more miles (16+ km)
Ceiling: at least 12,000 feet AGL
Clouds: scattered clouds at 7000 feet AGL
Present Weather: automated observation with no human augmentation;
there may or may not be significant weather present at this time
KVDF 301055Z AUTO 00000KT 10SM SCT070 23/21 A3012 RMK AO2

Conditions at: KVDF observed 30 April 2017  10:35 UTC
Temperature: 23.0°C (73°F)
Dewpoint: 21.0°C (70°F) [RH = 89%]
Pressure (altimeter): 30.11 inches Hg (1019.7 mb)
Winds: calm
Visibility: 10 or more miles (16+ km)
Ceiling: 7000 feet AGL
Clouds: overcast cloud deck at 7000 feet AGL
Present Weather: automated observation with no human augmentation;
there may or may not be significant weather present at this time
KVDF 301035Z AUTO 00000KT 10SM OVC070 23/21 A3011 RMK AO2

Conditions at: KVDF observed 30 April 2017  10:15 UTC
Temperature: 23.0°C (73°F)
Dewpoint: 21.0°C (70°F) [RH = 89%]
Pressure (altimeter): 30.11 inches Hg (1019.7 mb)
Winds: calm
Visibility: 10 or more miles (16+ km)
Ceiling: 6000 feet AGL
Clouds: overcast cloud deck at 6000 feet AGL
Present Weather: automated observation with no human augmentation;
there may or may not be significant weather present at this time
KVDF 301015Z AUTO 00000KT 10SM OVC060 23/21 A3011 RMK AO2

Conditions at: KVDF observed 30 April 2017  09:55 UTC
Temperature: 23.0°C (73°F)
Dewpoint: 20.0°C (68°F) [RH = 83%]
Pressure (altimeter): 30.10 inches Hg (1019.4 mb)
Winds: calm
Visibility: 10 or more miles (16+ km)
Ceiling: 6000 feet AGL
Clouds: broken clouds at 6000 feet AGL
Present Weather: automated observation with no human augmentation;
there may or may not be significant weather present at this time
KVDF 300955Z AUTO 00000KT 10SM BKN060 23/20 A3010 RMK AO2

Conditions at: KVDF observed 30 April 2017  09:35 UTC
Temperature: 23.0°C (73°F)
Dewpoint: 20.0°C (68°F) [RH = 83%]
Pressure (altimeter): 30.10 inches Hg (1019.4 mb)
Winds: calm
Visibility: 10 or more miles (16+ km)
Ceiling: at least 12,000 feet AGL
Clouds: scattered clouds at 6000 feet AGL
Present Weather: automated observation with no human augmentation;
there may or may not be significant weather present at this time
KVDF 300935Z AUTO 00000KT 10SM SCT060 23/20 A3010 RMK AO2

Conditions at: KVDF observed 30 April 2017  09:15 UTC
Temperature: 23.0°C (73°F)
Dewpoint: 20.0°C (68°F) [RH = 83%]
Pressure (altimeter): 30.10 inches Hg (1019.4 mb)
Winds: calm
Visibility: 10 or more miles (16+ km)
Ceiling: at least 12,000 feet AGL
Clouds: sky clear below 12,000 feet AGL
Present Weather: automated observation with no human augmentation;
there may or may not be significant weather present at this time
KVDF 300915Z AUTO 00000KT 10SM CLR 23/20 A3010 RMK AO2

Conditions at: KVDF observed 30 April 2017  08:55 UTC
Temperature: 23.0°C (73°F)
Dewpoint: 20.0°C (68°F) [RH = 83%]
Pressure (altimeter): 30.10 inches Hg (1019.4 mb)
Winds: from the E (100 degrees) at 3 MPH (3 knots; 1.6 m/s)
Visibility: 10 or more miles (16+ km)
Ceiling: at least 12,000 feet AGL
Clouds: sky clear below 12,000 feet AGL
Present Weather: automated observation with no human augmentation;
there may or may not be significant weather present at this time
KVDF 300855Z AUTO 10003KT 10SM CLR 23/20 A3010 RMK AO2

Conditions at: KVDF observed 30 April 2017  08:35 UTC
Temperature: 23.0°C (73°F)
Dewpoint: 20.0°C (68°F) [RH = 83%]
Pressure (altimeter): 30.09 inches Hg (1019.0 mb)
Winds: calm
Visibility: 10 or more miles (16+ km)
Ceiling: at least 12,000 feet AGL
Clouds: sky clear below 12,000 feet AGL
Present Weather: automated observation with no human augmentation;
there may or may not be significant weather present at this time
KVDF 300835Z AUTO 00000KT 10SM CLR 23/20 A3009 RMK AO2

Conditions at: KVDF observed 30 April 2017  08:15 UTC
Temperature: 24.0°C (75°F)
Dewpoint: 20.0°C (68°F) [RH = 78%]
Pressure (altimeter): 30.09 inches Hg (1019.0 mb)
Winds: from the E (100 degrees) at 3 MPH (3 knots; 1.6 m/s)
Visibility: 10 or more miles (16+ km)
Ceiling: at least 12,000 feet AGL
Clouds: sky clear below 12,000 feet AGL
Present Weather: automated observation with no human augmentation;
there may or may not be significant weather present at this time
KVDF 300815Z AUTO 10003KT 10SM CLR 24/20 A3009 RMK AO2

Conditions at: KVDF observed 30 April 2017  07:55 UTC
Temperature: 24.0°C (75°F)
Dewpoint: 20.0°C (68°F) [RH = 78%]
Pressure (altimeter): 30.09 inches Hg (1019.0 mb)
Winds: from the ESE (110 degrees) at 6 MPH (5 knots; 2.6 m/s)
Visibility: 10 or more miles (16+ km)
Ceiling: at least 12,000 feet AGL
Clouds: sky clear below 12,000 feet AGL
Present Weather: automated observation with no human augmentation;
there may or may not be significant weather present at this time
KVDF 300755Z AUTO 11005KT 10SM CLR 24/20 A3009 RMK AO2

Conditions at: KVDF observed 30 April 2017  07:35 UTC
Temperature: 24.0°C (75°F)
Dewpoint: 20.0°C (68°F) [RH = 78%]
Pressure (altimeter): 30.09 inches Hg (1019.0 mb)
Winds: calm
Visibility: 10 or more miles (16+ km)
Ceiling: at least 12,000 feet AGL
Clouds: sky clear below 12,000 feet AGL
Present Weather: automated observation with no human augmentation;
there may or may not be significant weather present at this time
KVDF 300735Z AUTO 00000KT 10SM CLR 24/20 A3009 RMK AO2

Conditions at: KVDF observed 30 April 2017  07:15 UTC
Temperature: 24.0°C (75°F)
Dewpoint: 20.0°C (68°F) [RH = 78%]
Pressure (altimeter): 30.09 inches Hg (1019.0 mb)
Winds: from the ESE (120 degrees) at 5 MPH (4 knots; 2.1 m/s)
Visibility: 10 or more miles (16+ km)
Ceiling: at least 12,000 feet AGL
Clouds: sky clear below 12,000 feet AGL
Present Weather: automated observation with no human augmentation;
there may or may not be significant weather present at this time
KVDF 300715Z AUTO 12004KT 10SM CLR 24/20 A3009 RMK AO2

Conditions at: KVDF observed 30 April 2017  06:55 UTC
Temperature: 24.0°C (75°F)
Dewpoint: 20.0°C (68°F) [RH = 78%]
Pressure (altimeter): 30.09 inches Hg (1019.0 mb)
Winds: from the ESE (120 degrees) at 5 MPH (4 knots; 2.1 m/s)
Visibility: 10 or more miles (16+ km)
Ceiling: at least 12,000 feet AGL
Clouds: sky clear below 12,000 feet AGL
Present Weather: automated observation with no human augmentation;
there may or may not be significant weather present at this time
KVDF 300655Z AUTO 12004KT 10SM CLR 24/20 A3009 RMK AO2

Conditions at: KVDF observed 30 April 2017  06:35 UTC
Temperature: 25.0°C (77°F)
Dewpoint: 20.0°C (68°F) [RH = 74%]
Pressure (altimeter): 30.09 inches Hg (1019.0 mb)
Winds: from the SE (130 degrees) at 5 MPH (4 knots; 2.1 m/s)
Visibility: 10 or more miles (16+ km)
Ceiling: at least 12,000 feet AGL
Clouds: sky clear below 12,000 feet AGL
Present Weather: automated observation with no human augmentation;
there may or may not be significant weather present at this time
KVDF 300635Z AUTO 13004KT 10SM CLR 25/20 A3009 RMK AO2

Conditions at: KVDF observed 30 April 2017  06:15 UTC
Temperature: 25.0°C (77°F)
Dewpoint: 20.0°C (68°F) [RH = 74%]
Pressure (altimeter): 30.09 inches Hg (1019.0 mb)
Winds: from the SE (140 degrees) at 3 MPH (3 knots; 1.6 m/s)
Visibility: 10 or more miles (16+ km)
Ceiling: at least 12,000 feet AGL
Clouds: sky clear below 12,000 feet AGL
Present Weather: automated observation with no human augmentation;
there may or may not be significant weather present at this time
KVDF 300615Z AUTO 14003KT 10SM CLR 25/20 A3009 RMK AO2

Conditions at: KVDF observed 30 April 2017  05:55 UTC
Temperature: 25.0°C (77°F)
Dewpoint: 20.0°C (68°F) [RH = 74%]
Pressure (altimeter): 30.10 inches Hg (1019.4 mb)
Winds: from the ESE (120 degrees) at 5 MPH (4 knots; 2.1 m/s)
Visibility: 10 or more miles (16+ km)
Ceiling: at least 12,000 feet AGL
Clouds: sky clear below 12,000 feet AGL
Present Weather: automated observation with no human augmentation;
there may or may not be significant weather present at this time
KVDF 300555Z AUTO 12004KT 10SM CLR 25/20 A3010 RMK AO2

Conditions at: KVDF observed 30 April 2017  05:35 UTC
Temperature: 25.0°C (77°F)
Dewpoint: 19.0°C (66°F) [RH = 69%]
Pressure (altimeter): 30.10 inches Hg (1019.4 mb)
Winds: from the ESE (120 degrees) at 6 MPH (5 knots; 2.6 m/s)
Visibility: 10 or more miles (16+ km)
Ceiling: at least 12,000 feet AGL
Clouds: sky clear below 12,000 feet AGL
Present Weather: automated observation with no human augmentation;
there may or may not be significant weather present at this time
KVDF 300535Z AUTO 12005KT 10SM CLR 25/19 A3010 RMK AO2

Conditions at: KVDF observed 30 April 2017  05:15 UTC
Temperature: 25.0°C (77°F)
Dewpoint: 19.0°C (66°F) [RH = 69%]
Pressure (altimeter): 30.11 inches Hg (1019.7 mb)
Winds: from the ESE (120 degrees) at 7 MPH (6 knots; 3.1 m/s)
Visibility: 10 or more miles (16+ km)
Ceiling: at least 12,000 feet AGL
Clouds: sky clear below 12,000 feet AGL
Present Weather: automated observation with no human augmentation;
there may or may not be significant weather present at this time
KVDF 300515Z AUTO 12006KT 10SM CLR 25/19 A3011 RMK AO2

Conditions at: KVDF observed 30 April 2017  04:55 UTC
Temperature: 26.0°C (79°F)
Dewpoint: 18.0°C (64°F) [RH = 61%]
Pressure (altimeter): 30.11 inches Hg (1019.7 mb)
Winds: from the ESE (120 degrees) at 7 MPH (6 knots; 3.1 m/s)
Visibility: 10 or more miles (16+ km)
Ceiling: at least 12,000 feet AGL
Clouds: sky clear below 12,000 feet AGL
Present Weather: automated observation with no human augmentation;
there may or may not be significant weather present at this time
KVDF 300455Z AUTO 12006KT 10SM CLR 26/18 A3011 RMK AO2

Conditions at: KVDF observed 30 April 2017  04:35 UTC
Temperature: 26.0°C (79°F)
Dewpoint: 18.0°C (64°F) [RH = 61%]
Pressure (altimeter): 30.12 inches Hg (1020.1 mb)
Winds: from the SE (130 degrees) at 8 MPH (7 knots; 3.6 m/s)
gusting to 16 MPH (14 knots; 7.3 m/s)
Visibility: 10 or more miles (16+ km)
Ceiling: at least 12,000 feet AGL
Clouds: sky clear below 12,000 feet AGL
Present Weather: automated observation with no human augmentation;
there may or may not be significant weather present at this time
KVDF 300435Z AUTO 13007G14KT 10SM CLR 26/18 A3012 RMK AO2

Conditions at: KVDF observed 30 April 2017  04:15 UTC
Temperature: 26.0°C (79°F)
Dewpoint: 18.0°C (64°F) [RH = 61%]
Pressure (altimeter): 30.12 inches Hg (1020.1 mb)
Winds: from the ESE (120 degrees) at 8 MPH (7 knots; 3.6 m/s)
Visibility: 10 or more miles (16+ km)
Ceiling: at least 12,000 feet AGL
Clouds: sky clear below 12,000 feet AGL
Present Weather: automated observation with no human augmentation;
there may or may not be significant weather present at this time
KVDF 300415Z AUTO 12007KT 10SM CLR 26/18 A3012 RMK AO2

Conditions at: KVDF observed 30 April 2017  03:55 UTC
Temperature: 26.0°C (79°F)
Dewpoint: 18.0°C (64°F) [RH = 61%]
Pressure (altimeter): 30.11 inches Hg (1019.7 mb)
Winds: from the ESE (120 degrees) at 9 MPH (8 knots; 4.2 m/s)
Visibility: 10 or more miles (16+ km)
Ceiling: at least 12,000 feet AGL
Clouds: sky clear below 12,000 feet AGL
Present Weather: automated observation with no human augmentation;
there may or may not be significant weather present at this time
KVDF 300355Z AUTO 12008KT 10SM CLR 26/18 A3011 RMK AO2

Conditions at: KVDF observed 30 April 2017  03:35 UTC
Temperature: 27.0°C (81°F)
Dewpoint: 17.0°C (63°F) [RH = 54%]
Pressure (altimeter): 30.12 inches Hg (1020.1 mb)
Winds: from the SE (130 degrees) at 7 MPH (6 knots; 3.1 m/s)
Visibility: 10 or more miles (16+ km)
Ceiling: at least 12,000 feet AGL
Clouds: sky clear below 12,000 feet AGL
Present Weather: automated observation with no human augmentation;
there may or may not be significant weather present at this time
KVDF 300335Z AUTO 13006KT 10SM CLR 27/17 A3012 RMK AO2

Conditions at: KVDF observed 30 April 2017  03:15 UTC
Temperature: 27.0°C (81°F)
Dewpoint: 17.0°C (63°F) [RH = 54%]
Pressure (altimeter): 30.12 inches Hg (1020.1 mb)
Winds: from the ESE (110 degrees) at 6 MPH (5 knots; 2.6 m/s)
Visibility: 10 or more miles (16+ km)
Ceiling: at least 12,000 feet AGL
Clouds: sky clear below 12,000 feet AGL
Present Weather: automated observation with no human augmentation;
there may or may not be significant weather present at this time
KVDF 300315Z AUTO 11005KT 10SM CLR 27/17 A3012 RMK AO2

Conditions at: KVDF observed 30 April 2017  02:55 UTC
Temperature: 27.0°C (81°F)
Dewpoint: 17.0°C (63°F) [RH = 54%]
Pressure (altimeter): 30.11 inches Hg (1019.7 mb)
Winds: from the ESE (110 degrees) at 8 MPH (7 knots; 3.6 m/s)
Visibility: 10 or more miles (16+ km)
Ceiling: at least 12,000 feet AGL
Clouds: sky clear below 12,000 feet AGL
Present Weather: automated observation with no human augmentation;
there may or may not be significant weather present at this time
KVDF 300255Z AUTO 11007KT 10SM CLR 27/17 A3011 RMK AO2

Conditions at: KVDF observed 30 April 2017  02:35 UTC
Temperature: 27.0°C (81°F)
Dewpoint: 17.0°C (63°F) [RH = 54%]
Pressure (altimeter): 30.11 inches Hg (1019.7 mb)
Winds: from the ESE (110 degrees) at 6 MPH (5 knots; 2.6 m/s)
Visibility: 10 or more miles (16+ km)
Ceiling: at least 12,000 feet AGL
Clouds: sky clear below 12,000 feet AGL
Present Weather: automated observation with no human augmentation;
there may or may not be significant weather present at this time
KVDF 300235Z AUTO 11005KT 10SM CLR 27/17 A3011 RMK AO2

Conditions at: KVDF observed 30 April 2017  02:15 UTC
Temperature: 28.0°C (82°F)
Dewpoint: 17.0°C (63°F) [RH = 51%]
Pressure (altimeter): 30.10 inches Hg (1019.4 mb)
Winds: from the E (100 degrees) at 6 MPH (5 knots; 2.6 m/s)
Visibility: 10 or more miles (16+ km)
Ceiling: at least 12,000 feet AGL
Clouds: sky clear below 12,000 feet AGL
Present Weather: automated observation with no human augmentation;
there may or may not be significant weather present at this time
KVDF 300215Z AUTO 10005KT 10SM CLR 28/17 A3010 RMK AO2

Conditions at: KVDF observed 30 April 2017  01:55 UTC
Temperature: 28.0°C (82°F)
Dewpoint: 17.0°C (63°F) [RH = 51%]
Pressure (altimeter): 30.09 inches Hg (1019.0 mb)
Winds: from the ESE (110 degrees) at 8 MPH (7 knots; 3.6 m/s)
Visibility: 10 or more miles (16+ km)
Ceiling: at least 12,000 feet AGL
Clouds: sky clear below 12,000 feet AGL
Present Weather: automated observation with no human augmentation;
there may or may not be significant weather present at this time
KVDF 300155Z AUTO 11007KT 10SM CLR 28/17 A3009 RMK AO2

Conditions at: KVDF observed 30 April 2017  01:35 UTC
Temperature: 29.0°C (84°F)
Dewpoint: 17.0°C (63°F) [RH = 48%]
Pressure (altimeter): 30.09 inches Hg (1019.0 mb)
Winds: from the ESE (110 degrees) at 9 MPH (8 knots; 4.2 m/s)
Visibility: 10 or more miles (16+ km)
Ceiling: at least 12,000 feet AGL
Clouds: sky clear below 12,000 feet AGL
Present Weather: automated observation with no human augmentation;
there may or may not be significant weather present at this time
KVDF 300135Z AUTO 11008KT 10SM CLR 29/17 A3009 RMK AO2

Conditions at: KVDF observed 30 April 2017  01:15 UTC
Temperature: 30.0°C (86°F)
Dewpoint: 16.0°C (61°F) [RH = 43%]
Pressure (altimeter): 30.08 inches Hg (1018.7 mb)
Winds: from the ESE (110 degrees) at 6 MPH (5 knots; 2.6 m/s)
Visibility: 10 or more miles (16+ km)
Ceiling: at least 12,000 feet AGL
Clouds: sky clear below 12,000 feet AGL
Present Weather: automated observation with no human augmentation;
there may or may not be significant weather present at this time
KVDF 300115Z AUTO 11005KT 10SM CLR 30/16 A3008 RMK AO2

Conditions at: KVDF observed 30 April 2017  00:55 UTC
Temperature: 30.0°C (86°F)
Dewpoint: 16.0°C (61°F) [RH = 43%]
Pressure (altimeter): 30.08 inches Hg (1018.7 mb)
Winds: from the ESE (110 degrees) at 6 MPH (5 knots; 2.6 m/s)
Visibility: 10 or more miles (16+ km)
Ceiling: at least 12,000 feet AGL
Clouds: sky clear below 12,000 feet AGL
Present Weather: automated observation with no human augmentation;
there may or may not be significant weather present at this time
KVDF 300055Z AUTO 11005KT 10SM CLR 30/16 A3008 RMK AO2

Conditions at: KVDF observed 30 April 2017  00:35 UTC
Temperature: 31.0°C (88°F)
Dewpoint: 16.0°C (61°F) [RH = 40%]
Pressure (altimeter): 30.07 inches Hg (1018.4 mb)
Winds: from the ESE (110 degrees) at 6 MPH (5 knots; 2.6 m/s)
Visibility: 10 or more miles (16+ km)
Ceiling: at least 12,000 feet AGL
Clouds: sky clear below 12,000 feet AGL
Present Weather: automated observation with no human augmentation;
there may or may not be significant weather present at this time
KVDF 300035Z AUTO 11005KT 10SM CLR 31/16 A3007 RMK AO2

Conditions at: KVDF observed 30 April 2017  00:15 UTC
Temperature: 31.0°C (88°F)
Dewpoint: 16.0°C (61°F) [RH = 40%]
Pressure (altimeter): 30.06 inches Hg (1018.0 mb)
Winds: from the SE (130 degrees) at 7 MPH (6 knots; 3.1 m/s)
Visibility: 10 or more miles (16+ km)
Ceiling: at least 12,000 feet AGL
Clouds: sky clear below 12,000 feet AGL
Present Weather: automated observation with no human augmentation;
there may or may not be significant weather present at this time
KVDF 300015Z AUTO 13006KT 10SM CLR 31/16 A3006 RMK AO2

Conditions at: KVDF observed 29 April 2017  23:55 UTC
Temperature: 32.0°C (90°F)
Dewpoint: 16.0°C (61°F) [RH = 38%]
Pressure (altimeter): 30.06 inches Hg (1018.0 mb)
Winds: from the SE (130 degrees) at 7 MPH (6 knots; 3.1 m/s)
gusting to 16 MPH (14 knots; 7.3 m/s)
Visibility: 10 or more miles (16+ km)
Ceiling: at least 12,000 feet AGL
Clouds: scattered clouds at 7000 feet AGL
scattered clouds at 10000 feet AGL
Present Weather: automated observation with no human augmentation;
there may or may not be significant weather present at this time
KVDF 292355Z AUTO 13006G14KT 10SM SCT070 SCT100 32/16 A3006 RMK AO2

Conditions at: KVDF observed 29 April 2017  23:35 UTC
Temperature: 32.0°C (90°F)
Dewpoint: 16.0°C (61°F) [RH = 38%]
Pressure (altimeter): 30.05 inches Hg (1017.7 mb)
Winds: from the SE (130 degrees) at 10 MPH (9 knots; 4.7 m/s)
gusting to 16 MPH (14 knots; 7.3 m/s)
Visibility: 10 or more miles (16+ km)
Ceiling: 9000 feet AGL
Clouds: scattered clouds at 7000 feet AGL
broken clouds at 9000 feet AGL
Present Weather: automated observation with no human augmentation;
there may or may not be significant weather present at this time
KVDF 292335Z AUTO 13009G14KT 10SM SCT070 BKN090 32/16 A3005 RMK AO2

Conditions at: KVDF observed 29 April 2017  23:15 UTC
Temperature: 33.0°C (91°F)
Dewpoint: 16.0°C (61°F) [RH = 36%]
Pressure (altimeter): 30.05 inches Hg (1017.7 mb)
Winds: from the SE (130 degrees) at 5 MPH (4 knots; 2.1 m/s)
gusting to 30 MPH (26 knots; 13.5 m/s)
Visibility: 10 or more miles (16+ km)
Ceiling: at least 12,000 feet AGL
Clouds: scattered clouds at 7000 feet AGL
scattered clouds at 10000 feet AGL
Present Weather: automated observation with no human augmentation;
there may or may not be significant weather present at this time
KVDF 292315Z AUTO 13004G26KT 10SM SCT070 SCT100 33/16 A3005 RMK AO2

Conditions at: KVDF observed 29 April 2017  22:55 UTC
Temperature: 33.0°C (91°F)
Dewpoint: 16.0°C (61°F) [RH = 36%]
Pressure (altimeter): 30.05 inches Hg (1017.7 mb)
Winds: from the ESE (120 degrees) at 9 MPH (8 knots; 4.2 m/s)
gusting to 18 MPH (16 knots; 8.3 m/s)
Visibility: 10 or more miles (16+ km)
Ceiling: at least 12,000 feet AGL
Clouds: scattered clouds at 10000 feet AGL
Present Weather: automated observation with no human augmentation;
there may or may not be significant weather present at this time
KVDF 292255Z AUTO 12008G16KT 10SM SCT100 33/16 A3005 RMK AO2

Conditions at: KVDF observed 29 April 2017  22:35 UTC
Temperature: 34.0°C (93°F)
Dewpoint: 15.0°C (59°F) [RH = 32%]
Pressure (altimeter): 30.05 inches Hg (1017.7 mb)
Winds: from the ESE (120 degrees) at 9 MPH (8 knots; 4.2 m/s)
Visibility: 10 or more miles (16+ km)
Ceiling: 10000 feet AGL
Clouds: broken clouds at 10000 feet AGL
Present Weather: automated observation with no human augmentation;
there may or may not be significant weather present at this time
KVDF 292235Z AUTO 12008KT 10SM BKN100 34/15 A3005 RMK AO2

Conditions at: KVDF observed 29 April 2017  22:15 UTC
Temperature: 34.0°C (93°F)
Dewpoint: 16.0°C (61°F) [RH = 34%]
Pressure (altimeter): 30.05 inches Hg (1017.7 mb)
Winds: from the ESE (110 degrees) at 8 MPH (7 knots; 3.6 m/s)
gusting to 20 MPH (17 knots; 8.8 m/s)
Visibility: 10 or more miles (16+ km)
Ceiling: 9000 feet AGL
Clouds: scattered clouds at 7000 feet AGL
broken clouds at 9000 feet AGL
Present Weather: automated observation with no human augmentation;
there may or may not be significant weather present at this time
KVDF 292215Z AUTO 11007G17KT 10SM SCT070 BKN090 34/16 A3005 RMK AO2

Conditions at: KVDF observed 29 April 2017  21:55 UTC
Temperature: 35.0°C (95°F)
Dewpoint: 15.0°C (59°F) [RH = 30%]
Pressure (altimeter): 30.04 inches Hg (1017.4 mb)
Winds: from the SE (130 degrees) at 7 MPH (6 knots; 3.1 m/s)
gusting to 16 MPH (14 knots; 7.3 m/s)
Visibility: 10 or more miles (16+ km)
Ceiling: 10000 feet AGL
Clouds: scattered clouds at 7500 feet AGL
broken clouds at 10000 feet AGL
Present Weather: automated observation with no human augmentation;
there may or may not be significant weather present at this time
KVDF 292155Z AUTO 13006G14KT 10SM SCT075 BKN100 35/15 A3004 RMK AO2

Conditions at: KVDF observed 29 April 2017  21:35 UTC
Temperature: 36.0°C (97°F)
Dewpoint: 15.0°C (59°F) [RH = 29%]
Pressure (altimeter): 30.04 inches Hg (1017.4 mb)
Winds: from the SSE (160 degrees) at 14 MPH (12 knots; 6.2 m/s)
gusting to 20 MPH (17 knots; 8.8 m/s)
Visibility: 10 or more miles (16+ km)
Ceiling: 10000 feet AGL
Clouds: scattered clouds at 7500 feet AGL
broken clouds at 10000 feet AGL
Present Weather: automated observation with no human augmentation;
there may or may not be significant weather present at this time
KVDF 292135Z AUTO 16012G17KT 10SM SCT075 BKN100 36/15 A3004 RMK AO2

Conditions at: KVDF observed 29 April 2017  21:15 UTC
Temperature: 36.0°C (97°F)
Dewpoint: 14.0°C (57°F) [RH = 27%]
Pressure (altimeter): 30.04 inches Hg (1017.4 mb)
Winds: from the SSE (160 degrees) at 7 MPH (6 knots; 3.1 m/s)
gusting to 16 MPH (14 knots; 7.3 m/s)
Visibility: 10 or more miles (16+ km)
Ceiling: at least 12,000 feet AGL
Clouds: scattered clouds at 7500 feet AGL
Present Weather: automated observation with no human augmentation;
there may or may not be significant weather present at this time
KVDF 292115Z AUTO 16006G14KT 10SM SCT075 36/14 A3004 RMK AO2

Conditions at: KVDF observed 29 April 2017  20:55 UTC
Temperature: 37.0°C (99°F)
Dewpoint: 15.0°C (59°F) [RH = 27%]
Pressure (altimeter): 30.05 inches Hg (1017.7 mb)
Winds: from the SE (130 degrees) at 8 MPH (7 knots; 3.6 m/s)
gusting to 18 MPH (16 knots; 8.3 m/s)
Visibility: 10 or more miles (16+ km)
Ceiling: at least 12,000 feet AGL
Clouds: scattered clouds at 7500 feet AGL
scattered clouds at 10000 feet AGL
Present Weather: automated observation with no human augmentation;
there may or may not be significant weather present at this time
KVDF 292055Z AUTO 13007G16KT 075V145 10SM SCT075 SCT100 37/15 A3005 RMK AO2

Conditions at: KVDF observed 29 April 2017  20:35 UTC
Temperature: 37.0°C (99°F)
Dewpoint: 13.0°C (55°F) [RH = 24%]
Pressure (altimeter): 30.05 inches Hg (1017.7 mb)
Winds: from the ESE (120 degrees) at 8 MPH (7 knots; 3.6 m/s)
gusting to 16 MPH (14 knots; 7.3 m/s)
Visibility: 10 or more miles (16+ km)
Ceiling: at least 12,000 feet AGL
Clouds: scattered clouds at 7500 feet AGL
scattered clouds at 8500 feet AGL
Present Weather: automated observation with no human augmentation;
there may or may not be significant weather present at this time
KVDF 292035Z AUTO 12007G14KT 10SM SCT075 SCT085 37/13 A3005 RMK AO2

Conditions at: KVDF observed 29 April 2017  20:15 UTC
Temperature: 37.0°C (99°F)
Dewpoint: 14.0°C (57°F) [RH = 25%]
Pressure (altimeter): 30.05 inches Hg (1017.7 mb)
Winds: from the SSE (150 degrees) at 9 MPH (8 knots; 4.2 m/s)
gusting to 17 MPH (15 knots; 7.8 m/s)
Visibility: 10 or more miles (16+ km)
Ceiling: at least 12,000 feet AGL
Clouds: scattered clouds at 8500 feet AGL
scattered clouds at 9000 feet AGL
Present Weather: automated observation with no human augmentation;
there may or may not be significant weather present at this time
KVDF 292015Z AUTO 15008G15KT 115V175 10SM SCT085 SCT090 37/14 A3005 RMK AO2

Conditions at: KVDF observed 29 April 2017  19:55 UTC
Temperature: 36.0°C (97°F)
Dewpoint: 12.0°C (54°F) [RH = 24%]
Pressure (altimeter): 30.06 inches Hg (1018.0 mb)
Winds: from the SSE (160 degrees) at 14 MPH (12 knots; 6.2 m/s)
gusting to 21 MPH (18 knots; 9.4 m/s)
Visibility: 10 or more miles (16+ km)
Ceiling: at least 12,000 feet AGL
Clouds: scattered clouds at 7500 feet AGL
Present Weather: automated observation with no human augmentation;
there may or may not be significant weather present at this time
KVDF 291955Z AUTO 16012G18KT 10SM SCT075 36/12 A3006 RMK AO2

Conditions at: KVDF observed 29 April 2017  19:35 UTC
Temperature: 36.0°C (97°F)
Dewpoint: 12.0°C (54°F) [RH = 24%]
Pressure (altimeter): 30.07 inches Hg (1018.4 mb)
Winds: from the SE (140 degrees) at 10 MPH (9 knots; 4.7 m/s)
gusting to 20 MPH (17 knots; 8.8 m/s)
Visibility: 10 or more miles (16+ km)
Ceiling: at least 12,000 feet AGL
Clouds: scattered clouds at 7500 feet AGL
Present Weather: automated observation with no human augmentation;
there may or may not be significant weather present at this time
KVDF 291935Z AUTO 14009G17KT 10SM SCT075 36/12 A3007 RMK AO2

Conditions at: KVDF observed 29 April 2017  19:15 UTC
Temperature: 36.0°C (97°F)
Dewpoint: 13.0°C (55°F) [RH = 25%]
Pressure (altimeter): 30.08 inches Hg (1018.7 mb)
Winds: from the SSE (160 degrees) at 9 MPH (8 knots; 4.2 m/s)
gusting to 18 MPH (16 knots; 8.3 m/s)
Visibility: 10 or more miles (16+ km)
Ceiling: at least 12,000 feet AGL
Clouds: scattered clouds at 6500 feet AGL
scattered clouds at 8000 feet AGL
Present Weather: automated observation with no human augmentation;
there may or may not be significant weather present at this time
KVDF 291915Z AUTO 16008G16KT 105V175 10SM SCT065 SCT080 36/13 A3008 RMK AO2

Conditions at: KVDF observed 29 April 2017  18:55 UTC
Temperature: 36.0°C (97°F)
Dewpoint: 16.0°C (61°F) [RH = 31%]
Pressure (altimeter): 30.09 inches Hg (1019.0 mb)
Winds: from the ESE (120 degrees) at 10 MPH (9 knots; 4.7 m/s)
gusting to 18 MPH (16 knots; 8.3 m/s)
Visibility: 10 or more miles (16+ km)
Ceiling: at least 12,000 feet AGL
Clouds: scattered clouds at 5500 feet AGL
scattered clouds at 8000 feet AGL
Present Weather: automated observation with no human augmentation;
there may or may not be significant weather present at this time
KVDF 291855Z AUTO 12009G16KT 075V135 10SM SCT055 SCT080 36/16 A3009 RMK AO2

Conditions at: KVDF observed 29 April 2017  18:35 UTC
Temperature: 36.0°C (97°F)
Dewpoint: 16.0°C (61°F) [RH = 31%]
Pressure (altimeter): 30.10 inches Hg (1019.4 mb)
Winds: from the SE (130 degrees) at 12 MPH (10 knots; 5.2 m/s)
gusting to 16 MPH (14 knots; 7.3 m/s)
Visibility: 10 or more miles (16+ km)
Ceiling: at least 12,000 feet AGL
Clouds: scattered clouds at 5500 feet AGL
Present Weather: automated observation with no human augmentation;
there may or may not be significant weather present at this time
KVDF 291835Z AUTO 13010G14KT 095V155 10SM SCT055 36/16 A3010 RMK AO2

Conditions at: KVDF observed 29 April 2017  18:15 UTC
Temperature: 35.0°C (95°F)
Dewpoint: 16.0°C (61°F) [RH = 32%]
Pressure (altimeter): 30.11 inches Hg (1019.7 mb)
Winds: from the E (100 degrees) at 12 MPH (10 knots; 5.2 m/s)
gusting to 17 MPH (15 knots; 7.8 m/s)
Visibility: 10 or more miles (16+ km)
Ceiling: at least 12,000 feet AGL
Clouds: scattered clouds at 5500 feet AGL
Present Weather: automated observation with no human augmentation;
there may or may not be significant weather present at this time
KVDF 291815Z AUTO 10010G15KT 075V135 10SM SCT055 35/16 A3011 RMK AO2

Conditions at: KVDF observed 29 April 2017  17:55 UTC
Temperature: 35.0°C (95°F)
Dewpoint: 17.0°C (63°F) [RH = 34%]
Pressure (altimeter): 30.11 inches Hg (1019.7 mb)
Winds: from the E (100 degrees) at 13 MPH (11 knots; 5.7 m/s)
gusting to 22 MPH (19 knots; 9.9 m/s)
Visibility: 10 or more miles (16+ km)
Ceiling: at least 12,000 feet AGL
Clouds: scattered clouds at 5000 feet AGL
scattered clouds at 6000 feet AGL
Present Weather: automated observation with no human augmentation;
there may or may not be significant weather present at this time
KVDF 291755Z AUTO 10011G19KT 075V145 10SM SCT050 SCT060 35/17 A3011 RMK AO2

Conditions at: KVDF observed 29 April 2017  17:35 UTC
Temperature: 34.0°C (93°F)
Dewpoint: 17.0°C (63°F) [RH = 36%]
Pressure (altimeter): 30.12 inches Hg (1020.1 mb)
Winds: from the SE (140 degrees) at 6 MPH (5 knots; 2.6 m/s)
gusting to 17 MPH (15 knots; 7.8 m/s)
Visibility: 10 or more miles (16+ km)
Ceiling: at least 12,000 feet AGL
Clouds: scattered clouds at 5000 feet AGL
scattered clouds at 6000 feet AGL
Present Weather: automated observation with no human augmentation;
there may or may not be significant weather present at this time
KVDF 291735Z AUTO 14005G15KT 10SM SCT050 SCT060 34/17 A3012 RMK AO2

Conditions at: KVDF observed 29 April 2017  17:15 UTC
Temperature: 34.0°C (93°F)
Dewpoint: 18.0°C (64°F) [RH = 39%]
Pressure (altimeter): 30.12 inches Hg (1020.1 mb)
Winds: from the SSE (150 degrees) at 14 MPH (12 knots; 6.2 m/s)
gusting to 21 MPH (18 knots; 9.4 m/s)
Visibility: 10 or more miles (16+ km)
Ceiling: at least 12,000 feet AGL
Clouds: scattered clouds at 5000 feet AGL
Present Weather: automated observation with no human augmentation;
there may or may not be significant weather present at this time
KVDF 291715Z AUTO 15012G18KT 10SM SCT050 34/18 A3012 RMK AO2

Conditions at: KVDF observed 29 April 2017  16:55 UTC
Temperature: 33.0°C (91°F)
Dewpoint: 18.0°C (64°F) [RH = 41%]
Pressure (altimeter): 30.12 inches Hg (1020.1 mb)
Winds: from the SE (140 degrees) at 9 MPH (8 knots; 4.2 m/s)
gusting to 24 MPH (21 knots; 10.9 m/s)
Visibility: 10 or more miles (16+ km)
Ceiling: at least 12,000 feet AGL
Clouds: scattered clouds at 4800 feet AGL
Present Weather: automated observation with no human augmentation;
there may or may not be significant weather present at this time
KVDF 291655Z AUTO 14008G21KT 10SM SCT048 33/18 A3012 RMK AO2

Conditions at: KVDF observed 29 April 2017  16:35 UTC
Temperature: 33.0°C (91°F)
Dewpoint: 18.0°C (64°F) [RH = 41%]
Pressure (altimeter): 30.14 inches Hg (1020.7 mb)
Winds: from the SSE (150 degrees) at 12 MPH (10 knots; 5.2 m/s)
gusting to 23 MPH (20 knots; 10.4 m/s)
Visibility: 10 or more miles (16+ km)
Ceiling: at least 12,000 feet AGL
Clouds: scattered clouds at 4400 feet AGL
Present Weather: automated observation with no human augmentation;
there may or may not be significant weather present at this time
KVDF 291635Z AUTO 15010G20KT 10SM SCT044 33/18 A3014 RMK AO2

Conditions at: KVDF observed 29 April 2017  16:15 UTC
Temperature: 33.0°C (91°F)
Dewpoint: 18.0°C (64°F) [RH = 41%]
Pressure (altimeter): 30.14 inches Hg (1020.7 mb)
Winds: from the SE (140 degrees) at 13 MPH (11 knots; 5.7 m/s)
gusting to 21 MPH (18 knots; 9.4 m/s)
Visibility: 10 or more miles (16+ km)
Ceiling: at least 12,000 feet AGL
Clouds: scattered clouds at 4200 feet AGL
Present Weather: automated observation with no human augmentation;
there may or may not be significant weather present at this time
KVDF 291615Z AUTO 14011G18KT 10SM SCT042 33/18 A3014 RMK AO2

Conditions at: KVDF observed 29 April 2017  15:55 UTC
Temperature: 32.0°C (90°F)
Dewpoint: 19.0°C (66°F) [RH = 46%]
Pressure (altimeter): 30.14 inches Hg (1020.7 mb)
Winds: from the SE (130 degrees) at 13 MPH (11 knots; 5.7 m/s)
gusting to 20 MPH (17 knots; 8.8 m/s)
Visibility: 10 or more miles (16+ km)
Ceiling: at least 12,000 feet AGL
Clouds: scattered clouds at 3800 feet AGL
Present Weather: automated observation with no human augmentation;
there may or may not be significant weather present at this time
KVDF 291555Z AUTO 13011G17KT 095V155 10SM SCT038 32/19 A3014 RMK AO2

Conditions at: KVDF observed 29 April 2017  15:35 UTC
Temperature: 32.0°C (90°F)
Dewpoint: 20.0°C (68°F) [RH = 49%]
Pressure (altimeter): 30.14 inches Hg (1020.7 mb)
Winds: from the SE (130 degrees) at 12 MPH (10 knots; 5.2 m/s)
gusting to 22 MPH (19 knots; 9.9 m/s)
Visibility: 10 or more miles (16+ km)
Ceiling: at least 12,000 feet AGL
Clouds: scattered clouds at 3400 feet AGL
Present Weather: automated observation with no human augmentation;
there may or may not be significant weather present at this time
KVDF 291535Z AUTO 13010G19KT 10SM SCT034 32/20 A3014 RMK AO2

Conditions at: KVDF observed 29 April 2017  15:15 UTC
Temperature: 31.0°C (88°F)
Dewpoint: 20.0°C (68°F) [RH = 52%]
Pressure (altimeter): 30.14 inches Hg (1020.7 mb)
Winds: from the SE (140 degrees) at 12 MPH (10 knots; 5.2 m/s)
gusting to 18 MPH (16 knots; 8.3 m/s)
Visibility: 10 or more miles (16+ km)
Ceiling: 3200 feet AGL
Clouds: broken clouds at 3200 feet AGL
Present Weather: automated observation with no human augmentation;
there may or may not be significant weather present at this time
KVDF 291515Z AUTO 14010G16KT 105V165 10SM BKN032 31/20 A3014 RMK AO2

Conditions at: KVDF observed 29 April 2017  14:55 UTC
Temperature: 31.0°C (88°F)
Dewpoint: 20.0°C (68°F) [RH = 52%]
Pressure (altimeter): 30.14 inches Hg (1020.7 mb)
Winds: from the SE (140 degrees) at 8 MPH (7 knots; 3.6 m/s)
gusting to 17 MPH (15 knots; 7.8 m/s)
Visibility: 10 or more miles (16+ km)
Ceiling: 3000 feet AGL
Clouds: broken clouds at 3000 feet AGL
Present Weather: automated observation with no human augmentation;
there may or may not be significant weather present at this time
KVDF 291455Z AUTO 14007G15KT 10SM BKN030 31/20 A3014 RMK AO2

Conditions at: KVDF observed 29 April 2017  14:35 UTC
Temperature: 30.0°C (86°F)
Dewpoint: 21.0°C (70°F) [RH = 59%]
Pressure (altimeter): 30.14 inches Hg (1020.7 mb)
Winds: from the SSE (160 degrees) at 15 MPH (13 knots; 6.8 m/s)
gusting to 21 MPH (18 knots; 9.4 m/s)
Visibility: 10 or more miles (16+ km)
Ceiling: 3000 feet AGL
Clouds: scattered clouds at 2500 feet AGL
broken clouds at 3000 feet AGL
Present Weather: automated observation with no human augmentation;
there may or may not be significant weather present at this time
KVDF 291435Z AUTO 16013G18KT 10SM SCT025 BKN030 30/21 A3014 RMK AO2

Conditions at: KVDF observed 29 April 2017  14:15 UTC
Temperature: 29.0°C (84°F)
Dewpoint: 21.0°C (70°F) [RH = 62%]
Pressure (altimeter): 30.14 inches Hg (1020.7 mb)
Winds: from the SE (140 degrees) at 14 MPH (12 knots; 6.2 m/s)
gusting to 20 MPH (17 knots; 8.8 m/s)
Visibility: 10 or more miles (16+ km)
Ceiling: 2300 feet AGL
Clouds: broken clouds at 2300 feet AGL
Present Weather: automated observation with no human augmentation;
there may or may not be significant weather present at this time
KVDF 291415Z AUTO 14012G17KT 10SM BKN023 29/21 A3014 RMK AO2

Conditions at: KVDF observed 29 April 2017  13:55 UTC
Temperature: 29.0°C (84°F)
Dewpoint: 21.0°C (70°F) [RH = 62%]
Pressure (altimeter): 30.14 inches Hg (1020.7 mb)
Winds: from the SE (130 degrees) at 12 MPH (10 knots; 5.2 m/s)
gusting to 21 MPH (18 knots; 9.4 m/s)
Visibility: 10 or more miles (16+ km)
Ceiling: 2000 feet AGL
Clouds: broken clouds at 2000 feet AGL
broken clouds at 2600 feet AGL
Present Weather: automated observation with no human augmentation;
there may or may not be significant weather present at this time
KVDF 291355Z AUTO 13010G18KT 10SM BKN020 BKN026 29/21 A3014 RMK AO2

Conditions at: KVDF observed 29 April 2017  13:35 UTC
Temperature: 28.0°C (82°F)
Dewpoint: 22.0°C (72°F) [RH = 70%]
Pressure (altimeter): 30.14 inches Hg (1020.7 mb)
Winds: from the SSE (150 degrees) at 10 MPH (9 knots; 4.7 m/s)
Visibility: 10 or more miles (16+ km)
Ceiling: 1800 feet AGL
Clouds: overcast cloud deck at 1800 feet AGL
Present Weather: automated observation with no human augmentation;
there may or may not be significant weather present at this time
KVDF 291335Z AUTO 15009KT 10SM OVC018 28/22 A3014 RMK AO2

Conditions at: KVDF observed 29 April 2017  13:15 UTC
Temperature: 27.0°C (81°F)
Dewpoint: 22.0°C (72°F) [RH = 74%]
Pressure (altimeter): 30.14 inches Hg (1020.7 mb)
Winds: from the SE (130 degrees) at 10 MPH (9 knots; 4.7 m/s)
Visibility: 10 or more miles (16+ km)
Ceiling: 1400 feet AGL
Clouds: overcast cloud deck at 1400 feet AGL
Present Weather: automated observation with no human augmentation;
there may or may not be significant weather present at this time
KVDF 291315Z AUTO 13009KT 10SM OVC014 27/22 A3014 RMK AO2

Conditions at: KVDF observed 29 April 2017  12:55 UTC
Temperature: 26.0°C (79°F)
Dewpoint: 22.0°C (72°F) [RH = 79%]
Pressure (altimeter): 30.14 inches Hg (1020.7 mb)
Winds: from the SE (130 degrees) at 7 MPH (6 knots; 3.1 m/s)
Visibility: 10 or more miles (16+ km)
Ceiling: 1200 feet AGL
Clouds: broken clouds at 1200 feet AGL
Present Weather: automated observation with no human augmentation;
there may or may not be significant weather present at this time
KVDF 291255Z AUTO 13006KT 10SM BKN012 26/22 A3014 RMK AO2

Conditions at: KVDF observed 29 April 2017  12:35 UTC
Temperature: 26.0°C (79°F)
Dewpoint: 22.0°C (72°F) [RH = 79%]
Pressure (altimeter): 30.14 inches Hg (1020.7 mb)
Winds: from the SE (130 degrees) at 10 MPH (9 knots; 4.7 m/s)
Visibility: 10 or more miles (16+ km)
Ceiling: at least 12,000 feet AGL
Clouds: scattered clouds at 1000 feet AGL
Present Weather: automated observation with no human augmentation;
there may or may not be significant weather present at this time
KVDF 291235Z AUTO 13009KT 10SM SCT010 26/22 A3014 RMK AO2

Conditions at: KVDF observed 29 April 2017  12:15 UTC
Temperature: 25.0°C (77°F)
Dewpoint: 22.0°C (72°F) [RH = 83%]
Pressure (altimeter): 30.14 inches Hg (1020.7 mb)
Winds: from the SE (130 degrees) at 8 MPH (7 knots; 3.6 m/s)
Visibility: 10 or more miles (16+ km)
Ceiling: at least 12,000 feet AGL
Clouds: scattered clouds at 1000 feet AGL
Present Weather: automated observation with no human augmentation;
there may or may not be significant weather present at this time
KVDF 291215Z AUTO 13007KT 10SM SCT010 25/22 A3014 RMK AO2

Conditions at: KVDF observed 29 April 2017  11:55 UTC
Temperature: 25.0°C (77°F)
Dewpoint: 22.0°C (72°F) [RH = 83%]
Pressure (altimeter): 30.14 inches Hg (1020.7 mb)
Winds: from the SE (130 degrees) at 7 MPH (6 knots; 3.1 m/s)
Visibility: 10 or more miles (16+ km)
Ceiling: at least 12,000 feet AGL
Clouds: scattered clouds at 1000 feet AGL
Present Weather: automated observation with no human augmentation;
there may or may not be significant weather present at this time
KVDF 291155Z AUTO 13006KT 10SM SCT010 25/22 A3014 RMK AO2

Conditions at: KVDF observed 29 April 2017  11:35 UTC
Temperature: 24.0°C (75°F)
Dewpoint: 22.0°C (72°F) [RH = 89%]
Pressure (altimeter): 30.13 inches Hg (1020.4 mb)
Winds: from the SE (130 degrees) at 7 MPH (6 knots; 3.1 m/s)
Visibility: 10 or more miles (16+ km)
Ceiling: at least 12,000 feet AGL
Clouds: scattered clouds at 1000 feet AGL
Present Weather: automated observation with no human augmentation;
there may or may not be significant weather present at this time
KVDF 291135Z AUTO 13006KT 10SM SCT010 24/22 A3013 RMK AO2

Conditions at: KVDF observed 29 April 2017  11:15 UTC
Temperature: 24.0°C (75°F)
Dewpoint: 22.0°C (72°F) [RH = 89%]
Pressure (altimeter): 30.12 inches Hg (1020.1 mb)
Winds: from the ESE (120 degrees) at 6 MPH (5 knots; 2.6 m/s)
Visibility: 10 or more miles (16+ km)
Ceiling: 1000 feet AGL
Clouds: broken clouds at 1000 feet AGL
Present Weather: automated observation with no human augmentation;
there may or may not be significant weather present at this time
KVDF 291115Z AUTO 12005KT 10SM BKN010 24/22 A3012 RMK AO2

Conditions at: KVDF observed 29 April 2017  10:55 UTC
Temperature: 24.0°C (75°F)
Dewpoint: 21.0°C (70°F) [RH = 83%]
Pressure (altimeter): 30.12 inches Hg (1020.1 mb)
Winds: from the ESE (110 degrees) at 5 MPH (4 knots; 2.1 m/s)
Visibility: 10 or more miles (16+ km)
Ceiling: at least 12,000 feet AGL
Clouds: scattered clouds at 1000 feet AGL
Present Weather: automated observation with no human augmentation;
there may or may not be significant weather present at this time
KVDF 291055Z AUTO 11004KT 10SM SCT010 24/21 A3012 RMK AO2

Conditions at: KVDF observed 29 April 2017  10:35 UTC
Temperature: 24.0°C (75°F)
Dewpoint: 21.0°C (70°F) [RH = 83%]
Pressure (altimeter): 30.11 inches Hg (1019.7 mb)
Winds: from the SE (130 degrees) at 5 MPH (4 knots; 2.1 m/s)
Visibility: 10 or more miles (16+ km)
Ceiling: at least 12,000 feet AGL
Clouds: sky clear below 12,000 feet AGL
Present Weather: automated observation with no human augmentation;
there may or may not be significant weather present at this time
KVDF 291035Z AUTO 13004KT 10SM CLR 24/21 A3011 RMK AO2

Conditions at: KVDF observed 29 April 2017  10:15 UTC
Temperature: 24.0°C (75°F)
Dewpoint: 21.0°C (70°F) [RH = 83%]
Pressure (altimeter): 30.10 inches Hg (1019.4 mb)
Winds: from the ESE (120 degrees) at 6 MPH (5 knots; 2.6 m/s)
Visibility: 10 or more miles (16+ km)
Ceiling: at least 12,000 feet AGL
Clouds: sky clear below 12,000 feet AGL
Present Weather: automated observation with no human augmentation;
there may or may not be significant weather present at this time
KVDF 291015Z AUTO 12005KT 10SM CLR 24/21 A3010 RMK AO2

Conditions at: KVDF observed 29 April 2017  09:55 UTC
Temperature: 24.0°C (75°F)
Dewpoint: 21.0°C (70°F) [RH = 83%]
Pressure (altimeter): 30.10 inches Hg (1019.4 mb)
Winds: from the ESE (120 degrees) at 3 MPH (3 knots; 1.6 m/s)
Visibility: 10 or more miles (16+ km)
Ceiling: at least 12,000 feet AGL
Clouds: sky clear below 12,000 feet AGL
Present Weather: automated observation with no human augmentation;
there may or may not be significant weather present at this time
KVDF 290955Z AUTO 12003KT 10SM CLR 24/21 A3010 RMK AO2

Conditions at: KVDF observed 29 April 2017  09:35 UTC
Temperature: 24.0°C (75°F)
Dewpoint: 21.0°C (70°F) [RH = 83%]
Pressure (altimeter): 30.09 inches Hg (1019.0 mb)
Winds: from the ESE (110 degrees) at 6 MPH (5 knots; 2.6 m/s)
Visibility: 10 or more miles (16+ km)
Ceiling: at least 12,000 feet AGL
Clouds: sky clear below 12,000 feet AGL
Present Weather: automated observation with no human augmentation;
there may or may not be significant weather present at this time
KVDF 290935Z AUTO 11005KT 10SM CLR 24/21 A3009 RMK AO2

Conditions at: KVDF observed 29 April 2017  09:15 UTC
Temperature: 24.0°C (75°F)
Dewpoint: 21.0°C (70°F) [RH = 83%]
Pressure (altimeter): 30.10 inches Hg (1019.4 mb)
Winds: from the ESE (120 degrees) at 5 MPH (4 knots; 2.1 m/s)
Visibility: 10 or more miles (16+ km)
Ceiling: at least 12,000 feet AGL
Clouds: sky clear below 12,000 feet AGL
Present Weather: automated observation with no human augmentation;
there may or may not be significant weather present at this time
KVDF 290915Z AUTO 12004KT 10SM CLR 24/21 A3010 RMK AO2

Conditions at: KVDF observed 29 April 2017  08:55 UTC
Temperature: 24.0°C (75°F)
Dewpoint: 21.0°C (70°F) [RH = 83%]
Pressure (altimeter): 30.10 inches Hg (1019.4 mb)
Winds: from the SE (130 degrees) at 5 MPH (4 knots; 2.1 m/s)
Visibility: 10 or more miles (16+ km)
Ceiling: at least 12,000 feet AGL
Clouds: sky clear below 12,000 feet AGL
Present Weather: automated observation with no human augmentation;
there may or may not be significant weather present at this time
KVDF 290855Z AUTO 13004KT 10SM CLR 24/21 A3010 RMK AO2

Conditions at: KVDF observed 29 April 2017  08:35 UTC
Temperature: 23.0°C (73°F)
Dewpoint: 21.0°C (70°F) [RH = 89%]
Pressure (altimeter): 30.10 inches Hg (1019.4 mb)
Winds: from the ESE (120 degrees) at 3 MPH (3 knots; 1.6 m/s)
Visibility: 10 or more miles (16+ km)
Ceiling: at least 12,000 feet AGL
Clouds: sky clear below 12,000 feet AGL
Present Weather: automated observation with no human augmentation;
there may or may not be significant weather present at this time
KVDF 290835Z AUTO 12003KT 10SM CLR 23/21 A3010 RMK AO2

Conditions at: KVDF observed 29 April 2017  08:15 UTC
Temperature: 23.0°C (73°F)
Dewpoint: 21.0°C (70°F) [RH = 89%]
Pressure (altimeter): 30.10 inches Hg (1019.4 mb)
Winds: calm
Visibility: 10 or more miles (16+ km)
Ceiling: at least 12,000 feet AGL
Clouds: sky clear below 12,000 feet AGL
Present Weather: automated observation with no human augmentation;
there may or may not be significant weather present at this time
KVDF 290815Z AUTO 00000KT 10SM CLR 23/21 A3010 RMK AO2

Conditions at: KVDF observed 29 April 2017  07:55 UTC
Temperature: 22.0°C (72°F)
Dewpoint: 20.0°C (68°F) [RH = 88%]
Pressure (altimeter): 30.10 inches Hg (1019.4 mb)
Winds: calm
Visibility: 10 or more miles (16+ km)
Ceiling: at least 12,000 feet AGL
Clouds: sky clear below 12,000 feet AGL
Present Weather: automated observation with no human augmentation;
there may or may not be significant weather present at this time
KVDF 290755Z AUTO 00000KT 10SM CLR 22/20 A3010 RMK AO2

Conditions at: KVDF observed 29 April 2017  07:35 UTC
Temperature: 22.0°C (72°F)
Dewpoint: 20.0°C (68°F) [RH = 88%]
Pressure (altimeter): 30.10 inches Hg (1019.4 mb)
Winds: calm
Visibility: 10 or more miles (16+ km)
Ceiling: at least 12,000 feet AGL
Clouds: sky clear below 12,000 feet AGL
Present Weather: automated observation with no human augmentation;
there may or may not be significant weather present at this time
KVDF 290735Z AUTO 00000KT 10SM CLR 22/20 A3010 RMK AO2

Conditions at: KVDF observed 29 April 2017  07:15 UTC
Temperature: 22.0°C (72°F)
Dewpoint: 20.0°C (68°F) [RH = 88%]
Pressure (altimeter): 30.10 inches Hg (1019.4 mb)
Winds: calm
Visibility: 10 or more miles (16+ km)
Ceiling: at least 12,000 feet AGL
Clouds: sky clear below 12,000 feet AGL
Present Weather: automated observation with no human augmentation;
there may or may not be significant weather present at this time
KVDF 290715Z AUTO 00000KT 10SM CLR 22/20 A3010 RMK AO2

Conditions at: KVDF observed 29 April 2017  06:55 UTC
Temperature: 23.0°C (73°F)
Dewpoint: 20.0°C (68°F) [RH = 83%]
Pressure (altimeter): 30.11 inches Hg (1019.7 mb)
Winds: calm
Visibility: 10 or more miles (16+ km)
Ceiling: at least 12,000 feet AGL
Clouds: sky clear below 12,000 feet AGL
Present Weather: automated observation with no human augmentation;
there may or may not be significant weather present at this time
KVDF 290655Z AUTO 00000KT 10SM CLR 23/20 A3011 RMK AO2

Conditions at: KVDF observed 29 April 2017  06:35 UTC
Temperature: 24.0°C (75°F)
Dewpoint: 20.0°C (68°F) [RH = 78%]
Pressure (altimeter): 30.11 inches Hg (1019.7 mb)
Winds: calm
Visibility: 10 or more miles (16+ km)
Ceiling: at least 12,000 feet AGL
Clouds: sky clear below 12,000 feet AGL
Present Weather: automated observation with no human augmentation;
there may or may not be significant weather present at this time
KVDF 290635Z AUTO 00000KT 10SM CLR 24/20 A3011 RMK AO2

Conditions at: KVDF observed 29 April 2017  06:15 UTC
Temperature: 24.0°C (75°F)
Dewpoint: 20.0°C (68°F) [RH = 78%]
Pressure (altimeter): 30.11 inches Hg (1019.7 mb)
Winds: calm
Visibility: 10 or more miles (16+ km)
Ceiling: at least 12,000 feet AGL
Clouds: sky clear below 12,000 feet AGL
Present Weather: automated observation with no human augmentation;
there may or may not be significant weather present at this time
KVDF 290615Z AUTO 00000KT 10SM CLR 24/20 A3011 RMK AO2

Conditions at: KVDF observed 29 April 2017  05:55 UTC
Temperature: 25.0°C (77°F)
Dewpoint: 20.0°C (68°F) [RH = 74%]
Pressure (altimeter): 30.12 inches Hg (1020.1 mb)
Winds: calm
Visibility: 10 or more miles (16+ km)
Ceiling: at least 12,000 feet AGL
Clouds: sky clear below 12,000 feet AGL
Present Weather: automated observation with no human augmentation;
there may or may not be significant weather present at this time
KVDF 290555Z AUTO 00000KT 10SM CLR 25/20 A3012 RMK AO2

Conditions at: KVDF observed 29 April 2017  05:35 UTC
Temperature: 26.0°C (79°F)
Dewpoint: 20.0°C (68°F) [RH = 70%]
Pressure (altimeter): 30.11 inches Hg (1019.7 mb)
Winds: from the SE (140 degrees) at 3 MPH (3 knots; 1.6 m/s)
Visibility: 10 or more miles (16+ km)
Ceiling: at least 12,000 feet AGL
Clouds: sky clear below 12,000 feet AGL
Present Weather: automated observation with no human augmentation;
there may or may not be significant weather present at this time
KVDF 290535Z AUTO 14003KT 10SM CLR 26/20 A3011 RMK AO2

Conditions at: KVDF observed 29 April 2017  05:15 UTC
Temperature: 26.0°C (79°F)
Dewpoint: 20.0°C (68°F) [RH = 70%]
Pressure (altimeter): 30.11 inches Hg (1019.7 mb)
Winds: from the ESE (120 degrees) at 3 MPH (3 knots; 1.6 m/s)
Visibility: 10 or more miles (16+ km)
Ceiling: at least 12,000 feet AGL
Clouds: sky clear below 12,000 feet AGL
Present Weather: automated observation with no human augmentation;
there may or may not be significant weather present at this time
KVDF 290515Z AUTO 12003KT 10SM CLR 26/20 A3011 RMK AO2

Conditions at: KVDF observed 29 April 2017  04:55 UTC
Temperature: 26.0°C (79°F)
Dewpoint: 20.0°C (68°F) [RH = 70%]
Pressure (altimeter): 30.12 inches Hg (1020.1 mb)
Winds: calm
Visibility: 10 or more miles (16+ km)
Ceiling: at least 12,000 feet AGL
Clouds: sky clear below 12,000 feet AGL
Present Weather: automated observation with no human augmentation;
there may or may not be significant weather present at this time
KVDF 290455Z AUTO 00000KT 10SM CLR 26/20 A3012 RMK AO2

Conditions at: KVDF observed 29 April 2017  04:35 UTC
Temperature: 27.0°C (81°F)
Dewpoint: 20.0°C (68°F) [RH = 66%]
Pressure (altimeter): 30.12 inches Hg (1020.1 mb)
Winds: from the SSE (160 degrees) at 5 MPH (4 knots; 2.1 m/s)
Visibility: 10 or more miles (16+ km)
Ceiling: at least 12,000 feet AGL
Clouds: sky clear below 12,000 feet AGL
Present Weather: automated observation with no human augmentation;
there may or may not be significant weather present at this time
KVDF 290435Z AUTO 16004KT 10SM CLR 27/20 A3012 RMK AO2

Conditions at: KVDF observed 29 April 2017  04:15 UTC
Temperature: 27.0°C (81°F)
Dewpoint: 20.0°C (68°F) [RH = 66%]
Pressure (altimeter): 30.11 inches Hg (1019.7 mb)
Winds: from the SSE (160 degrees) at 5 MPH (4 knots; 2.1 m/s)
Visibility: 10 or more miles (16+ km)
Ceiling: at least 12,000 feet AGL
Clouds: sky clear below 12,000 feet AGL
Present Weather: automated observation with no human augmentation;
there may or may not be significant weather present at this time
KVDF 290415Z AUTO 16004KT 10SM CLR 27/20 A3011 RMK AO2

Conditions at: KVDF observed 29 April 2017  03:55 UTC
Temperature: 27.0°C (81°F)
Dewpoint: 20.0°C (68°F) [RH = 66%]
Pressure (altimeter): 30.11 inches Hg (1019.7 mb)
Winds: from the S (170 degrees) at 3 MPH (3 knots; 1.6 m/s)
Visibility: 10 or more miles (16+ km)
Ceiling: at least 12,000 feet AGL
Clouds: sky clear below 12,000 feet AGL
Present Weather: automated observation with no human augmentation;
there may or may not be significant weather present at this time
KVDF 290355Z AUTO 17003KT 10SM CLR 27/20 A3011 RMK AO2

Conditions at: KVDF observed 29 April 2017  03:35 UTC
Temperature: 28.0°C (82°F)
Dewpoint: 20.0°C (68°F) [RH = 62%]
Pressure (altimeter): 30.11 inches Hg (1019.7 mb)
Winds: from the S (170 degrees) at 3 MPH (3 knots; 1.6 m/s)
Visibility: 10 or more miles (16+ km)
Ceiling: at least 12,000 feet AGL
Clouds: sky clear below 12,000 feet AGL
Present Weather: automated observation with no human augmentation;
there may or may not be significant weather present at this time
KVDF 290335Z AUTO 17003KT 10SM CLR 28/20 A3011 RMK AO2

Conditions at: KVDF observed 29 April 2017  03:15 UTC
Temperature: 28.0°C (82°F)
Dewpoint: 20.0°C (68°F) [RH = 62%]
Pressure (altimeter): 30.11 inches Hg (1019.7 mb)
Winds: from the S (170 degrees) at 7 MPH (6 knots; 3.1 m/s)
Visibility: 10 or more miles (16+ km)
Ceiling: at least 12,000 feet AGL
Clouds: sky clear below 12,000 feet AGL
Present Weather: automated observation with no human augmentation;
there may or may not be significant weather present at this time
KVDF 290315Z AUTO 17006KT 10SM CLR 28/20 A3011 RMK AO2

Conditions at: KVDF observed 29 April 2017  02:55 UTC
Temperature: 28.0°C (82°F)
Dewpoint: 20.0°C (68°F) [RH = 62%]
Pressure (altimeter): 30.10 inches Hg (1019.4 mb)
Winds: from the S (170 degrees) at 6 MPH (5 knots; 2.6 m/s)
Visibility: 10 or more miles (16+ km)
Ceiling: at least 12,000 feet AGL
Clouds: sky clear below 12,000 feet AGL
Present Weather: automated observation with no human augmentation;
there may or may not be significant weather present at this time
KVDF 290255Z AUTO 17005KT 10SM CLR 28/20 A3010 RMK AO2

Conditions at: KVDF observed 29 April 2017  02:35 UTC
Temperature: 28.0°C (82°F)
Dewpoint: 20.0°C (68°F) [RH = 62%]
Pressure (altimeter): 30.10 inches Hg (1019.4 mb)
Winds: from the SSE (160 degrees) at 8 MPH (7 knots; 3.6 m/s)
Visibility: 10 or more miles (16+ km)
Ceiling: at least 12,000 feet AGL
Clouds: sky clear below 12,000 feet AGL
Present Weather: automated observation with no human augmentation;
there may or may not be significant weather present at this time
KVDF 290235Z AUTO 16007KT 10SM CLR 28/20 A3010 RMK AO2

Conditions at: KVDF observed 29 April 2017  02:15 UTC
Temperature: 27.0°C (81°F)
Dewpoint: 21.0°C (70°F) [RH = 70%]
Pressure (altimeter): 30.09 inches Hg (1019.0 mb)
Winds: from the S (180 degrees) at 7 MPH (6 knots; 3.1 m/s)
Visibility: 10 or more miles (16+ km)
Ceiling: at least 12,000 feet AGL
Clouds: sky clear below 12,000 feet AGL
Present Weather: automated observation with no human augmentation;
there may or may not be significant weather present at this time
KVDF 290215Z AUTO 18006KT 10SM CLR 27/21 A3009 RMK AO2

Conditions at: KVDF observed 29 April 2017  01:55 UTC
Temperature: 28.0°C (82°F)
Dewpoint: 22.0°C (72°F) [RH = 70%]
Pressure (altimeter): 30.08 inches Hg (1018.7 mb)
Winds: from the SSW (210 degrees) at 5 MPH (4 knots; 2.1 m/s)
Visibility: 10 or more miles (16+ km)
Ceiling: at least 12,000 feet AGL
Clouds: sky clear below 12,000 feet AGL
Present Weather: automated observation with no human augmentation;
there may or may not be significant weather present at this time
KVDF 290155Z AUTO 21004KT 10SM CLR 28/22 A3008 RMK AO2

Conditions at: KVDF observed 29 April 2017  01:35 UTC
Temperature: 28.0°C (82°F)
Dewpoint: 22.0°C (72°F) [RH = 70%]
Pressure (altimeter): 30.07 inches Hg (1018.4 mb)
Winds: from the S (190 degrees) at 5 MPH (4 knots; 2.1 m/s)
Visibility: 10 or more miles (16+ km)
Ceiling: at least 12,000 feet AGL
Clouds: sky clear below 12,000 feet AGL
Present Weather: automated observation with no human augmentation;
there may or may not be significant weather present at this time
KVDF 290135Z AUTO 19004KT 10SM CLR 28/22 A3007 RMK AO2

Conditions at: KVDF observed 29 April 2017  01:15 UTC
Temperature: 28.0°C (82°F)
Dewpoint: 21.0°C (70°F) [RH = 66%]
Pressure (altimeter): 30.06 inches Hg (1018.0 mb)
Winds: from the S (190 degrees) at 6 MPH (5 knots; 2.6 m/s)
Visibility: 10 or more miles (16+ km)
Ceiling: at least 12,000 feet AGL
Clouds: sky clear below 12,000 feet AGL
Present Weather: automated observation with no human augmentation;
there may or may not be significant weather present at this time
KVDF 290115Z AUTO 19005KT 10SM CLR 28/21 A3006 RMK AO2

Conditions at: KVDF observed 29 April 2017  00:55 UTC
Temperature: 30.0°C (86°F)
Dewpoint: 21.0°C (70°F) [RH = 59%]
Pressure (altimeter): 30.05 inches Hg (1017.7 mb)
Winds: from the S (190 degrees) at 6 MPH (5 knots; 2.6 m/s)
Visibility: 10 or more miles (16+ km)
Ceiling: at least 12,000 feet AGL
Clouds: sky clear below 12,000 feet AGL
Present Weather: automated observation with no human augmentation;
there may or may not be significant weather present at this time
KVDF 290055Z AUTO 19005KT 10SM CLR 30/21 A3005 RMK AO2

Conditions at: KVDF observed 29 April 2017  00:35 UTC
Temperature: 30.0°C (86°F)
Dewpoint: 20.0°C (68°F) [RH = 55%]
Pressure (altimeter): 30.04 inches Hg (1017.4 mb)
Winds: calm
Visibility: 10 or more miles (16+ km)
Ceiling: at least 12,000 feet AGL
Clouds: sky clear below 12,000 feet AGL
Present Weather: automated observation with no human augmentation;
there may or may not be significant weather present at this time
KVDF 290035Z AUTO 00000KT 10SM CLR 30/20 A3004 RMK AO2

Conditions at: KVDF observed 29 April 2017  00:15 UTC
Temperature: 31.0°C (88°F)
Dewpoint: 21.0°C (70°F) [RH = 55%]
Pressure (altimeter): 30.03 inches Hg (1017.0 mb)
Winds: from the SSW (200 degrees) at 5 MPH (4 knots; 2.1 m/s)
Visibility: 10 or more miles (16+ km)
Ceiling: at least 12,000 feet AGL
Clouds: scattered clouds at 8500 feet AGL
Present Weather: automated observation with no human augmentation;
there may or may not be significant weather present at this time
KVDF 290015Z AUTO 20004KT 10SM SCT085 31/21 A3003 RMK AO2

Conditions at: KVDF observed 28 April 2017  23:55 UTC
Temperature: 32.0°C (90°F)
Dewpoint: 20.0°C (68°F) [RH = 49%]
Pressure (altimeter): 30.02 inches Hg (1016.7 mb)
Winds: from the S (190 degrees) at 3 MPH (3 knots; 1.6 m/s)
Visibility: 10 or more miles (16+ km)
Ceiling: at least 12,000 feet AGL
Clouds: scattered clouds at 8500 feet AGL
Present Weather: automated observation with no human augmentation;
there may or may not be significant weather present at this time
KVDF 282355Z AUTO 19003KT 10SM SCT085 32/20 A3002 RMK AO2

Conditions at: KVDF observed 28 April 2017  23:35 UTC
Temperature: 35.0°C (95°F)
Dewpoint: 12.0°C (54°F) [RH = 25%]
Pressure (altimeter): 30.02 inches Hg (1016.7 mb)
Winds: from the SSE (150 degrees) at 3 MPH (3 knots; 1.6 m/s)
Visibility: 10 or more miles (16+ km)
Ceiling: at least 12,000 feet AGL
Clouds: scattered clouds at 8500 feet AGL
Present Weather: automated observation with no human augmentation;
there may or may not be significant weather present at this time
KVDF 282335Z AUTO 15003KT 10SM SCT085 35/12 A3002 RMK AO2

Conditions at: KVDF observed 28 April 2017  23:15 UTC
Temperature: 35.0°C (95°F)
Dewpoint: 12.0°C (54°F) [RH = 25%]
Pressure (altimeter): 30.01 inches Hg (1016.3 mb)
Winds: from the SE (140 degrees) at 3 MPH (3 knots; 1.6 m/s)
Visibility: 10 or more miles (16+ km)
Ceiling: at least 12,000 feet AGL
Clouds: sky clear below 12,000 feet AGL
Present Weather: automated observation with no human augmentation;
there may or may not be significant weather present at this time
KVDF 282315Z AUTO 14003KT 10SM CLR 35/12 A3001 RMK AO2

Conditions at: KVDF observed 28 April 2017  22:55 UTC
Temperature: 36.0°C (97°F)
Dewpoint: 11.0°C (52°F) [RH = 22%]
Pressure (altimeter): 30.01 inches Hg (1016.3 mb)
Winds: from the SE (140 degrees) at 6 MPH (5 knots; 2.6 m/s)
Visibility: 10 or more miles (16+ km)
Ceiling: at least 12,000 feet AGL
Clouds: sky clear below 12,000 feet AGL
Present Weather: automated observation with no human augmentation;
there may or may not be significant weather present at this time
KVDF 282255Z AUTO 14005KT 10SM CLR 36/11 A3001 RMK AO2

Conditions at: KVDF observed 28 April 2017  22:35 UTC
Temperature: 36.0°C (97°F)
Dewpoint: 11.0°C (52°F) [RH = 22%]
Pressure (altimeter): 30.01 inches Hg (1016.3 mb)
Winds: from the SE (130 degrees) at 7 MPH (6 knots; 3.1 m/s)
Visibility: 10 or more miles (16+ km)
Ceiling: at least 12,000 feet AGL
Clouds: sky clear below 12,000 feet AGL
Present Weather: automated observation with no human augmentation;
there may or may not be significant weather present at this time
KVDF 282235Z AUTO 13006KT 10SM CLR 36/11 A3001 RMK AO2

Conditions at: KVDF observed 28 April 2017  22:15 UTC
Temperature: 37.0°C (99°F)
Dewpoint: 11.0°C (52°F) [RH = 21%]
Pressure (altimeter): 30.01 inches Hg (1016.3 mb)
Winds: from the ESE (120 degrees) at 9 MPH (8 knots; 4.2 m/s)
Visibility: 10 or more miles (16+ km)
Ceiling: at least 12,000 feet AGL
Clouds: scattered clouds at 8000 feet AGL
Present Weather: automated observation with no human augmentation;
there may or may not be significant weather present at this time
KVDF 282215Z AUTO 12008KT 10SM SCT080 37/11 A3001 RMK AO2

Conditions at: KVDF observed 28 April 2017  21:55 UTC
Temperature: 37.0°C (99°F)
Dewpoint: 14.0°C (57°F) [RH = 25%]
Pressure (altimeter): 30.00 inches Hg (1016.0 mb)
Winds: from the ESE (110 degrees) at 9 MPH (8 knots; 4.2 m/s)
Visibility: 10 or more miles (16+ km)
Ceiling: at least 12,000 feet AGL
Clouds: scattered clouds at 8000 feet AGL
Present Weather: automated observation with no human augmentation;
there may or may not be significant weather present at this time
KVDF 282155Z AUTO 11008KT 10SM SCT080 37/14 A3000 RMK AO2

Conditions at: KVDF observed 28 April 2017  21:35 UTC
Temperature: 36.0°C (97°F)
Dewpoint: 14.0°C (57°F) [RH = 27%]
Pressure (altimeter): 30.00 inches Hg (1016.0 mb)
Winds: from the ESE (120 degrees) at 7 MPH (6 knots; 3.1 m/s)
Visibility: 10 or more miles (16+ km)
Ceiling: at least 12,000 feet AGL
Clouds: scattered clouds at 8000 feet AGL
Present Weather: automated observation with no human augmentation;
there may or may not be significant weather present at this time
KVDF 282135Z AUTO 12006KT 10SM SCT080 36/14 A3000 RMK AO2

Conditions at: KVDF observed 28 April 2017  21:15 UTC
Temperature: 37.0°C (99°F)
Dewpoint: 15.0°C (59°F) [RH = 27%]
Pressure (altimeter): 30.00 inches Hg (1016.0 mb)
Winds: from the E (100 degrees) at 7 MPH (6 knots; 3.1 m/s)
Visibility: 10 or more miles (16+ km)
Ceiling: at least 12,000 feet AGL
Clouds: scattered clouds at 8000 feet AGL
Present Weather: automated observation with no human augmentation;
there may or may not be significant weather present at this time
KVDF 282115Z AUTO 10006KT 10SM SCT080 37/15 A3000 RMK AO2

Conditions at: KVDF observed 28 April 2017  20:55 UTC
Temperature: 38.0°C (100°F)
Dewpoint: 15.0°C (59°F) [RH = 26%]
Pressure (altimeter): 30.00 inches Hg (1016.0 mb)
Winds: from the SSE (160 degrees) at 6 MPH (5 knots; 2.6 m/s)
Visibility: 10 or more miles (16+ km)
Ceiling: at least 12,000 feet AGL
Clouds: scattered clouds at 8000 feet AGL
Present Weather: automated observation with no human augmentation;
there may or may not be significant weather present at this time
KVDF 282055Z AUTO 16005KT 10SM SCT080 38/15 A3000 RMK AO2

Conditions at: KVDF observed 28 April 2017  20:35 UTC
Temperature: 37.0°C (99°F)
Dewpoint: 15.0°C (59°F) [RH = 27%]
Pressure (altimeter): 30.01 inches Hg (1016.3 mb)
Winds: from the SSE (150 degrees) at 7 MPH (6 knots; 3.1 m/s)
Visibility: 10 or more miles (16+ km)
Ceiling: at least 12,000 feet AGL
Clouds: sky clear below 12,000 feet AGL
Present Weather: automated observation with no human augmentation;
there may or may not be significant weather present at this time
KVDF 282035Z AUTO 15006KT 10SM CLR 37/15 A3001 RMK AO2

Conditions at: KVDF observed 28 April 2017  20:15 UTC
Temperature: 37.0°C (99°F)
Dewpoint: 16.0°C (61°F) [RH = 29%]
Pressure (altimeter): 30.01 inches Hg (1016.3 mb)
Winds: from the ESE (120 degrees) at 3 MPH (3 knots; 1.6 m/s)
Visibility: 10 or more miles (16+ km)
Ceiling: at least 12,000 feet AGL
Clouds: sky clear below 12,000 feet AGL
Present Weather: automated observation with no human augmentation;
there may or may not be significant weather present at this time
KVDF 282015Z AUTO 12003KT 10SM CLR 37/16 A3001 RMK AO2

Conditions at: KVDF observed 28 April 2017  19:55 UTC
Temperature: 37.0°C (99°F)
Dewpoint: 16.0°C (61°F) [RH = 29%]
Pressure (altimeter): 30.02 inches Hg (1016.7 mb)
Winds: from the E (90 degrees) at 9 MPH (8 knots; 4.2 m/s)
gusting to 17 MPH (15 knots; 7.8 m/s)
Visibility: 10 or more miles (16+ km)
Ceiling: at least 12,000 feet AGL
Clouds: scattered clouds at 6500 feet AGL
Present Weather: automated observation with no human augmentation;
there may or may not be significant weather present at this time
KVDF 281955Z AUTO 09008G15KT 10SM SCT065 37/16 A3002 RMK AO2

Conditions at: KVDF observed 28 April 2017  19:35 UTC
Temperature: 37.0°C (99°F)
Dewpoint: 17.0°C (63°F) [RH = 31%]
Pressure (altimeter): 30.02 inches Hg (1016.7 mb)
Winds: from the E (100 degrees) at 8 MPH (7 knots; 3.6 m/s)
gusting to 16 MPH (14 knots; 7.3 m/s)
Visibility: 10 or more miles (16+ km)
Ceiling: at least 12,000 feet AGL
Clouds: scattered clouds at 6500 feet AGL
scattered clouds at 8500 feet AGL
Present Weather: automated observation with no human augmentation;
there may or may not be significant weather present at this time
KVDF 281935Z AUTO 10007G14KT 10SM SCT065 SCT085 37/17 A3002 RMK AO2

Conditions at: KVDF observed 28 April 2017  19:15 UTC
Temperature: 36.0°C (97°F)
Dewpoint: 18.0°C (64°F) [RH = 35%]
Pressure (altimeter): 30.03 inches Hg (1017.0 mb)
Winds: from the ESE (120 degrees) at 7 MPH (6 knots; 3.1 m/s)
gusting to 23 MPH (20 knots; 10.4 m/s)
Visibility: 10 or more miles (16+ km)
Ceiling: at least 12,000 feet AGL
Clouds: scattered clouds at 6500 feet AGL
scattered clouds at 7500 feet AGL
Present Weather: automated observation with no human augmentation;
there may or may not be significant weather present at this time
KVDF 281915Z AUTO 12006G20KT 10SM SCT065 SCT075 36/18 A3003 RMK AO2

Conditions at: KVDF observed 28 April 2017  18:55 UTC
Temperature: 36.0°C (97°F)
Dewpoint: 18.0°C (64°F) [RH = 35%]
Pressure (altimeter): 30.04 inches Hg (1017.4 mb)
Winds: from the SSE (160 degrees) at 9 MPH (8 knots; 4.2 m/s)
Visibility: 10 or more miles (16+ km)
Ceiling: at least 12,000 feet AGL
Clouds: scattered clouds at 5500 feet AGL
scattered clouds at 7500 feet AGL
Present Weather: automated observation with no human augmentation;
there may or may not be significant weather present at this time
KVDF 281855Z AUTO 16008KT 10SM SCT055 SCT075 36/18 A3004 RMK AO2

Conditions at: KVDF observed 28 April 2017  18:35 UTC
Temperature: 35.0°C (95°F)
Dewpoint: 18.0°C (64°F) [RH = 37%]
Pressure (altimeter): 30.04 inches Hg (1017.4 mb)
Winds: from the S (170 degrees) at 8 MPH (7 knots; 3.6 m/s)
Visibility: 10 or more miles (16+ km)
Ceiling: 5500 feet AGL
Clouds: broken clouds at 5500 feet AGL
broken clouds at 6500 feet AGL
Present Weather: automated observation with no human augmentation;
there may or may not be significant weather present at this time
KVDF 281835Z AUTO 17007KT 10SM BKN055 BKN065 35/18 A3004 RMK AO2

Conditions at: KVDF observed 28 April 2017  18:15 UTC
Temperature: 36.0°C (97°F)
Dewpoint: 18.0°C (64°F) [RH = 35%]
Pressure (altimeter): 30.04 inches Hg (1017.4 mb)
Winds: from the SE (130 degrees) at 13 MPH (11 knots; 5.7 m/s)
gusting to 17 MPH (15 knots; 7.8 m/s)
Visibility: 10 or more miles (16+ km)
Ceiling: at least 12,000 feet AGL
Clouds: scattered clouds at 5500 feet AGL
Present Weather: automated observation with no human augmentation;
there may or may not be significant weather present at this time
KVDF 281815Z AUTO 13011G15KT 095V185 10SM SCT055 36/18 A3004 RMK AO2

Conditions at: KVDF observed 28 April 2017  17:55 UTC
Temperature: 36.0°C (97°F)
Dewpoint: 18.0°C (64°F) [RH = 35%]
Pressure (altimeter): 30.05 inches Hg (1017.7 mb)
Winds: from the SE (130 degrees) at 6 MPH (5 knots; 2.6 m/s)
gusting to 17 MPH (15 knots; 7.8 m/s)
Visibility: 10 or more miles (16+ km)
Ceiling: at least 12,000 feet AGL
Clouds: scattered clouds at 5500 feet AGL
Present Weather: automated observation with no human augmentation;
there may or may not be significant weather present at this time
KVDF 281755Z AUTO 13005G15KT 10SM SCT055 36/18 A3005 RMK AO2

Conditions at: KVDF observed 28 April 2017  17:35 UTC
Temperature: 36.0°C (97°F)
Dewpoint: 19.0°C (66°F) [RH = 37%]
Pressure (altimeter): 30.06 inches Hg (1018.0 mb)
Winds: from the SSE (160 degrees) at 13 MPH (11 knots; 5.7 m/s)
gusting to 16 MPH (14 knots; 7.3 m/s)
Visibility: 10 or more miles (16+ km)
Ceiling: at least 12,000 feet AGL
Clouds: scattered clouds at 5000 feet AGL
Present Weather: automated observation with no human augmentation;
there may or may not be significant weather present at this time
KVDF 281735Z AUTO 16011G14KT 115V175 10SM SCT050 36/19 A3006 RMK AO2

Conditions at: KVDF observed 28 April 2017  17:15 UTC
Temperature: 35.0°C (95°F)
Dewpoint: 20.0°C (68°F) [RH = 42%]
Pressure (altimeter): 30.06 inches Hg (1018.0 mb)
Winds: from the SSE (160 degrees) at 7 MPH (6 knots; 3.1 m/s)
gusting to 20 MPH (17 knots; 8.8 m/s)
Visibility: 10 or more miles (16+ km)
Ceiling: at least 12,000 feet AGL
Clouds: scattered clouds at 4800 feet AGL
scattered clouds at 6000 feet AGL
Present Weather: automated observation with no human augmentation;
there may or may not be significant weather present at this time
KVDF 281715Z AUTO 16006G17KT 10SM SCT048 SCT060 35/20 A3006 RMK AO2

Conditions at: KVDF observed 28 April 2017  16:55 UTC
Temperature: 35.0°C (95°F)
Dewpoint: 20.0°C (68°F) [RH = 42%]
Pressure (altimeter): 30.06 inches Hg (1018.0 mb)
Winds: from the S (170 degrees) at 10 MPH (9 knots; 4.7 m/s)
gusting to 17 MPH (15 knots; 7.8 m/s)
Visibility: 10 or more miles (16+ km)
Ceiling: at least 12,000 feet AGL
Clouds: scattered clouds at 4400 feet AGL
Present Weather: automated observation with no human augmentation;
there may or may not be significant weather present at this time
KVDF 281655Z AUTO 17009G15KT 10SM SCT044 35/20 A3006 RMK AO2

Conditions at: KVDF observed 28 April 2017  16:35 UTC
Temperature: 34.0°C (93°F)
Dewpoint: 20.0°C (68°F) [RH = 44%]
Pressure (altimeter): 30.07 inches Hg (1018.4 mb)
Winds: from the SSE (160 degrees) at 9 MPH (8 knots; 4.2 m/s)
gusting to 16 MPH (14 knots; 7.3 m/s)
Visibility: 10 or more miles (16+ km)
Ceiling: at least 12,000 feet AGL
Clouds: scattered clouds at 4000 feet AGL
scattered clouds at 4600 feet AGL
Present Weather: automated observation with no human augmentation;
there may or may not be significant weather present at this time
KVDF 281635Z AUTO 16008G14KT 10SM SCT040 SCT046 34/20 A3007 RMK AO2

Conditions at: KVDF observed 28 April 2017  16:15 UTC
Temperature: 33.0°C (91°F)
Dewpoint: 21.0°C (70°F) [RH = 49%]
Pressure (altimeter): 30.07 inches Hg (1018.4 mb)
Winds: from the S (190 degrees) at 10 MPH (9 knots; 4.7 m/s)
Visibility: 10 or more miles (16+ km)
Ceiling: at least 12,000 feet AGL
Clouds: scattered clouds at 3600 feet AGL
scattered clouds at 4600 feet AGL
Present Weather: automated observation with no human augmentation;
there may or may not be significant weather present at this time
KVDF 281615Z AUTO 19009KT 10SM SCT036 SCT046 33/21 A3007 RMK AO2

Conditions at: KVDF observed 28 April 2017  15:55 UTC
Temperature: 32.0°C (90°F)
Dewpoint: 21.0°C (70°F) [RH = 52%]
Pressure (altimeter): 30.08 inches Hg (1018.7 mb)
Winds: from the S (170 degrees) at 8 MPH (7 knots; 3.6 m/s)
Visibility: 10 or more miles (16+ km)
Ceiling: at least 12,000 feet AGL
Clouds: scattered clouds at 3600 feet AGL
Present Weather: automated observation with no human augmentation;
there may or may not be significant weather present at this time
KVDF 281555Z AUTO 17007KT 10SM SCT036 32/21 A3008 RMK AO2

Conditions at: KVDF observed 28 April 2017  15:35 UTC
Temperature: 32.0°C (90°F)
Dewpoint: 21.0°C (70°F) [RH = 52%]
Pressure (altimeter): 30.09 inches Hg (1019.0 mb)
Winds: from the SSE (160 degrees) at 8 MPH (7 knots; 3.6 m/s)
Visibility: 10 or more miles (16+ km)
Ceiling: at least 12,000 feet AGL
Clouds: scattered clouds at 2900 feet AGL
Present Weather: automated observation with no human augmentation;
there may or may not be significant weather present at this time
KVDF 281535Z AUTO 16007KT 125V185 10SM SCT029 32/21 A3009 RMK AO2

Conditions at: KVDF observed 28 April 2017  15:15 UTC
Temperature: 31.0°C (88°F)
Dewpoint: 21.0°C (70°F) [RH = 55%]
Pressure (altimeter): 30.09 inches Hg (1019.0 mb)
Winds: from the S (170 degrees) at 7 MPH (6 knots; 3.1 m/s)
Visibility: 10 or more miles (16+ km)
Ceiling: at least 12,000 feet AGL
Clouds: scattered clouds at 2700 feet AGL
Present Weather: automated observation with no human augmentation;
there may or may not be significant weather present at this time
KVDF 281515Z AUTO 17006KT 10SM SCT027 31/21 A3009 RMK AO2